Payson, AZ

2:07 AM MST on October 25, 2014 (GMT -0700)
Granite Dells | Change Station
CLOSE
Current Station
Personal Weather Station
Location: Payson, AZ
Elevation: 5000 ft
Nearby Weather Stations

Elev 5000 ft 34.23 °N, 111.30 °W | Updated 5 minutes ago

Clear
Clear
47.0 °F
Feels Like 47 °F
N
0.0
Wind Variable Wind from South
Gusts 0.0 mph

Today
High -- | Low -- °F
--% Chance of Precip.
Yesterday
High -- | Low -- °F
Precip. -- in
6:38 AM 5:39 PM
New Moon, 2% visible
Pressure 30.05 in
Visibility 10.0 miles
Clouds Clear
Windchill 47 °F
Dew Point 40 °F
Humidity 76%
Rainfall 0.00 in
Snow Depth Not available.
UV 0 out of 12
Pollen 5.40 out of 12
Ozone Good
PM2.5 Moderate
Flu Activity No Activity
METAR KPRC 250853Z AUTO 20007KT 10SM CLR 11/03 A3025 RMK AO2 SLP175 T01060033 56003 TSNO

More Conditions Fewer Conditions

Pressure 30.05 in
Visibility 10.0 miles
Clouds Clear
Windchill 47 °F
Dew Point 40 °F
Humidity 76%
Rainfall 0.00 in
Snow Depth Not available.
UV 0 out of 12
Pollen 5.40 out of 12
Ozone Good
PM2.5 Moderate
Flu Activity No Activity
METAR KPRC 250853Z AUTO 20007KT 10SM CLR 11/03 A3025 RMK AO2 SLP175 T01060033 56003 TSNO

More Conditions Fewer Conditions

10-Day Weather Forecast

Almanac

Astronomy

Oct. 25, 2014 Rise Set
Actual Time 6:38 AM MST 5:39 PM MST
Civil Twilight 6:13 AM MST 6:04 PM MST
Nautical Twilight 5:43 AM MST 6:34 PM MST
Astronomical Twilight 5:14 AM MST 7:03 PM MST
Moon 8:17 AM MST 7:08 PM MST
Length of Visible Light 11h 51m
Length of Day
11h 00m
Tomorrow will be 1m 57s shorter.
New Moon, 2% of the Moon is Illuminated
Today
New Moon
Oct 30
First Quarter
Nov 6
Full
Nov 14
Last Quarter
Nov 22
New

Today's Extremes

State Highs State Lows

Community

WunderPhotos

Upload Photos

1,764,796 photos uploaded!

Nearby

Air Quality

  Air Quality AQ Index Pollutant
Yesterday Moderate
PM2.5
Yesterday Good
OZONE
Current Moderate
PM2.5
Current Good
OZONE
Saturday Good
PM2.5
Saturday Good
OZONE
Saturday Good
CO
Sunday Good
PM2.5
Sunday Good
OZONE
Sunday Good
CO

Snow Depth

Station Depth Elevation
Baker Butte 0 in 7300 ft
Promontory 0 in 7930 ft
Workman Creek 1 in 6900 ft
Happy Jack 0 in 7630 ft
Mormon Mountain 0 in 7500 ft

Earthquake Activity

City Distance Mag. Time & Date
No recent earthquake activity has been reported nearby.
Minimum magnitude displayed is 2.5.

Coastal Water Temperatures

Place Temperature
No Stations Reporting

Nearby Weather Stations